Time;durP1;ratioP1;P1;durP2;ratioP2;P2;SDS_P1;SDS_P2;PMS_P1;PMS_P2;Temp;Humidity;BMP_temperature;BMP_pressure;BME280_temperature;BME280_humidity;BME280_pressure;Samples;Min_cycle;Max_cycle;Signal;HPM_P1;HPM_P2
2021/10/07 00:01:30;;;;;;;1.30;1.20;;;9.20;92.10;;;;;;4988622;28;20055;-81
2021/10/07 00:03:56;;;;;;;2.40;1.65;;;9.20;92.00;;;;;;4989925;28;20085;-81
2021/10/07 00:06:21;;;;;;;1.50;1.40;;;9.20;92.00;;;;;;4990768;28;20030;-81
2021/10/07 00:08:47;;;;;;;1.40;1.30;;;9.20;92.00;;;;;;4987175;28;20034;-82
2021/10/07 00:11:14;;;;;;;1.60;1.35;;;9.20;92.10;;;;;;4987310;28;20053;-82
2021/10/07 00:13:40;;;;;;;1.35;1.25;;;9.20;92.30;;;;;;4992679;28;20064;-82
2021/10/07 00:16:07;;;;;;;1.45;1.35;;;9.20;92.40;;;;;;4992347;28;20073;-81
2021/10/07 00:18:37;;;;;;;2.53;1.55;;;9.20;92.40;;;;;;4986163;28;20034;-83
2021/10/07 00:21:04;;;;;;;1.40;1.30;;;9.20;92.50;;;;;;4985470;28;20027;-82
2021/10/07 00:23:32;;;;;;;1.38;1.27;;;9.20;92.40;;;;;;4986393;28;20393;-82
2021/10/07 00:25:58;;;;;;;1.08;1.08;;;9.20;92.90;;;;;;4990335;28;20102;-82
2021/10/07 00:28:24;;;;;;;2.35;1.60;;;9.20;92.50;;;;;;4985116;28;20070;-82
2021/10/07 00:30:54;;;;;;;1.70;1.60;;;9.20;92.60;;;;;;4992355;28;20061;-82
2021/10/07 00:33:27;;;;;;;1.90;1.50;;;9.20;93.00;;;;;;4988271;28;20313;-82
2021/10/07 00:36:10;;;;;;;1.58;1.48;;;9.20;92.50;;;;;;4992116;28;20065;-82
2021/10/07 00:41:19;;;;;;;1.55;1.45;;;9.30;92.60;;;;;;4995662;28;20029;-81
2021/10/07 00:43:45;;;;;;;2.67;1.60;;;9.30;92.70;;;;;;4989596;28;20042;-81
2021/10/07 00:46:11;;;;;;;1.88;1.52;;;9.30;92.90;;;;;;4981134;28;20022;-82
2021/10/07 00:48:36;;;;;;;2.28;1.70;;;9.30;92.60;;;;;;4989063;28;20150;-82
2021/10/07 00:51:02;;;;;;;4.10;1.50;;;9.30;92.60;;;;;;4992553;28;20033;-82
2021/10/07 00:53:28;;;;;;;1.67;1.58;;;9.30;92.60;;;;;;4991710;28;20049;-82
2021/10/07 00:55:54;;;;;;;1.88;1.70;;;9.30;92.70;;;;;;4983686;28;20120;-81
2021/10/07 00:58:19;;;;;;;2.45;1.40;;;9.30;92.60;;;;;;4993355;28;20023;-81
2021/10/07 01:00:45;;;;;;;1.88;1.70;;;9.30;92.60;;;;;;4993608;28;20553;-81
2021/10/07 01:03:12;;;;;;;1.30;1.20;;;9.30;92.70;;;;;;4994000;28;20026;-82
2021/10/07 01:05:38;;;;;;;1.90;1.70;;;9.30;92.70;;;;;;4986320;28;20485;-82
2021/10/07 01:08:05;;;;;;;1.67;1.58;;;9.20;92.70;;;;;;4994702;28;20030;-82
2021/10/07 01:10:32;;;;;;;2.38;2.00;;;9.30;92.80;;;;;;4989945;28;20049;-82
2021/10/07 01:12:57;;;;;;;2.30;1.75;;;9.20;92.90;;;;;;4995034;28;20037;-82
2021/10/07 01:15:23;;;;;;;1.83;1.70;;;9.20;92.80;;;;;;4994079;28;20057;-82
2021/10/07 01:17:49;;;;;;;1.98;1.88;;;9.20;93.00;;;;;;4994553;28;20113;-82
2021/10/07 01:20:17;;;;;;;1.80;1.67;;;9.20;92.90;;;;;;4993364;28;20033;-82
2021/10/07 01:22:42;;;;;;;1.80;1.50;;;9.20;92.90;;;;;;4994712;28;20091;-82
2021/10/07 01:25:08;;;;;;;1.70;1.60;;;9.30;92.90;;;;;;4991777;28;20030;-80
2021/10/07 01:27:37;;;;;;;1.60;1.50;;;9.20;93.00;;;;;;4993492;28;20101;-80
2021/10/07 01:30:12;;;;;;;2.33;1.40;;;9.20;93.10;;;;;;4986782;28;20386;-80
2021/10/07 01:32:39;;;;;;;3.13;2.10;;;9.20;93.00;;;;;;4989845;28;20046;-80
2021/10/07 01:35:07;;;;;;;1.58;1.48;;;9.30;93.10;;;;;;4993238;28;20038;-80
2021/10/07 01:37:33;;;;;;;1.75;1.38;;;9.30;93.00;;;;;;4987739;28;20438;-79
2021/10/07 01:39:59;;;;;;;2.38;2.20;;;9.30;93.10;;;;;;4985892;28;20069;-80
2021/10/07 01:42:26;;;;;;;2.25;1.50;;;9.30;93.30;;;;;;4993842;28;20094;-80
2021/10/07 01:44:52;;;;;;;2.13;1.83;;;9.30;93.20;;;;;;4993485;28;20080;-80
2021/10/07 01:47:18;;;;;;;2.28;1.70;;;9.20;93.50;;;;;;4996492;28;20381;-81
2021/10/07 01:49:44;;;;;;;1.63;1.40;;;9.20;93.70;;;;;;4994876;28;20038;-81
2021/10/07 01:52:09;;;;;;;1.75;1.50;;;9.20;93.60;;;;;;4994478;28;20022;-81
2021/10/07 01:54:35;;;;;;;2.38;1.70;;;9.30;93.40;;;;;;4989861;28;20031;-81
2021/10/07 01:57:00;;;;;;;2.42;1.58;;;9.20;93.70;;;;;;4984666;28;20046;-81
2021/10/07 01:59:26;;;;;;;1.73;1.63;;;9.20;93.80;;;;;;4996341;28;20026;-81
2021/10/07 02:01:52;;;;;;;1.65;1.52;;;9.20;93.70;;;;;;4991029;28;20038;-81
2021/10/07 02:04:17;;;;;;;2.05;1.60;;;9.20;93.70;;;;;;4996759;28;20456;-81
2021/10/07 02:06:43;;;;;;;1.95;1.48;;;9.20;93.80;;;;;;4995823;28;20036;-81
2021/10/07 02:09:09;;;;;;;1.90;1.70;;;9.20;93.80;;;;;;4996146;28;20022;-81
2021/10/07 02:11:34;;;;;;;2.83;1.60;;;9.30;93.80;;;;;;4980228;28;20053;-80
2021/10/07 02:14:01;;;;;;;1.80;1.67;;;9.30;93.90;;;;;;4974916;28;20039;-80
2021/10/07 02:16:31;;;;;;;2.65;1.67;;;9.30;93.70;;;;;;4988654;28;20043;-81
2021/10/07 02:18:57;;;;;;;3.50;1.67;;;9.30;93.70;;;;;;4991719;28;20099;-81
2021/10/07 02:21:23;;;;;;;1.90;1.70;;;9.30;93.50;;;;;;4991513;28;20072;-81
2021/10/07 02:23:49;;;;;;;2.70;1.77;;;9.30;93.80;;;;;;4981701;28;20034;-82
2021/10/07 02:26:15;;;;;;;1.90;1.80;;;9.30;93.90;;;;;;4994572;28;20484;-81
2021/10/07 02:28:40;;;;;;;2.72;1.73;;;9.30;93.70;;;;;;4995406;28;20038;-82
2021/10/07 02:31:06;;;;;;;2.15;1.90;;;9.40;93.50;;;;;;4993339;28;20046;-81
2021/10/07 02:33:32;;;;;;;3.42;1.85;;;9.30;93.50;;;;;;4993203;28;20035;-81
2021/10/07 02:35:57;;;;;;;2.10;1.88;;;9.40;93.40;;;;;;4991014;28;20027;-81
2021/10/07 02:38:23;;;;;;;3.67;1.95;;;9.40;93.40;;;;;;4987381;28;20117;-81
2021/10/07 02:40:49;;;;;;;3.45;1.90;;;9.40;93.50;;;;;;4980889;28;20031;-81
2021/10/07 02:43:14;;;;;;;1.85;1.60;;;9.40;93.40;;;;;;4993094;28;20026;-81
2021/10/07 02:45:40;;;;;;;4.07;1.67;;;9.40;93.40;;;;;;4992549;28;20037;-81
2021/10/07 02:48:06;;;;;;;2.67;1.92;;;9.40;93.20;;;;;;4991356;28;20030;-81
2021/10/07 02:50:32;;;;;;;1.98;1.80;;;9.40;93.60;;;;;;4995506;28;20029;-81
2021/10/07 02:52:57;;;;;;;3.53;1.73;;;9.30;93.40;;;;;;4992560;28;20034;-81
2021/10/07 02:55:23;;;;;;;3.08;1.88;;;9.40;93.20;;;;;;4985150;28;20390;-81
2021/10/07 02:57:48;;;;;;;3.75;2.03;;;9.30;93.20;;;;;;4991605;28;20022;-81
2021/10/07 03:00:17;;;;;;;2.28;1.75;;;9.30;93.20;;;;;;4993544;28;20096;-80
2021/10/07 03:02:43;;;;;;;;;;;9.30;93.50;;;;;;4982832;28;20097;-80
2021/10/07 03:05:09;;;;;;;3.22;1.88;;;9.30;93.50;;;;;;4992397;28;19960;-80
2021/10/07 03:07:34;;;;;;;2.13;2.00;;;9.30;93.30;;;;;;4992778;28;20026;-80
2021/10/07 03:10:00;;;;;;;3.05;2.00;;;9.40;93.40;;;;;;4994461;28;20030;-80
2021/10/07 03:12:26;;;;;;;2.95;2.20;;;9.30;93.70;;;;;;4989701;28;20043;-80
2021/10/07 03:14:52;;;;;;;3.72;2.75;;;9.30;93.50;;;;;;4987528;28;20046;-80
2021/10/07 03:17:17;;;;;;;3.85;3.53;;;9.30;93.90;;;;;;4991579;28;20026;-80
2021/10/07 03:19:44;;;;;;;7.68;4.70;;;9.30;93.90;;;;;;4993390;28;20113;-80
2021/10/07 03:22:10;;;;;;;6.28;4.50;;;9.30;93.80;;;;;;4991826;28;20052;-80
2021/10/07 03:24:36;;;;;;;3.58;2.92;;;9.30;93.90;;;;;;4993613;28;20413;-80
2021/10/07 03:27:03;;;;;;;3.85;2.78;;;9.20;93.90;;;;;;4984638;28;20038;-81
2021/10/07 03:29:30;;;;;;;3.05;2.38;;;9.20;94.00;;;;;;4985939;28;20030;-80
2021/10/07 03:31:56;;;;;;;2.75;2.10;;;9.20;94.00;;;;;;4991462;28;20109;-81
2021/10/07 03:34:22;;;;;;;2.17;1.70;;;9.20;94.00;;;;;;4987505;28;20031;-80
2021/10/07 03:36:48;;;;;;;1.80;1.70;;;9.20;94.00;;;;;;4993450;28;20042;-80
2021/10/07 03:39:14;;;;;;;3.95;1.95;;;9.20;94.00;;;;;;4980407;28;20039;-81
2021/10/07 03:41:39;;;;;;;2.70;1.63;;;9.20;93.80;;;;;;4992187;28;20030;-81
2021/10/07 03:44:06;;;;;;;2.95;1.70;;;9.30;93.90;;;;;;4981045;28;20485;-81
2021/10/07 03:46:32;;;;;;;2.20;2.00;;;9.30;93.90;;;;;;4993397;28;20121;-81
2021/10/07 03:48:58;;;;;;;1.88;1.45;;;9.30;93.90;;;;;;4997821;28;20045;-80
2021/10/07 03:51:24;;;;;;;1.63;1.52;;;9.30;94.00;;;;;;4995935;28;20046;-81
2021/10/07 03:53:49;;;;;;;1.73;1.63;;;9.30;93.90;;;;;;4992910;28;20034;-80
2021/10/07 03:56:15;;;;;;;2.00;1.70;;;9.30;93.90;;;;;;4991669;28;20121;-81
2021/10/07 03:58:41;;;;;;;1.73;1.63;;;9.30;93.90;;;;;;4991464;28;20388;-81
2021/10/07 04:01:07;;;;;;;2.95;1.67;;;9.20;93.80;;;;;;4978685;28;20370;-81
2021/10/07 04:03:32;;;;;;;3.10;1.73;;;9.30;94.00;;;;;;4993149;28;20026;-81
2021/10/07 04:05:59;;;;;;;2.05;1.70;;;9.30;93.80;;;;;;4985872;28;20046;-81
2021/10/07 04:08:25;;;;;;;3.58;1.90;;;9.30;93.80;;;;;;4986305;28;20045;-81
2021/10/07 04:10:50;;;;;;;2.33;1.77;;;9.30;93.90;;;;;;4991856;28;20048;-81
2021/10/07 04:13:21;;;;;;;1.67;1.50;;;9.30;93.70;;;;;;4991783;28;20030;-81
2021/10/07 04:15:47;;;;;;;2.42;1.80;;;9.30;93.80;;;;;;4990757;28;20520;-81
2021/10/07 04:18:14;;;;;;;3.70;2.42;;;9.30;93.70;;;;;;4995032;28;20023;-81
2021/10/07 04:20:44;;;;;;;2.60;1.63;;;9.30;93.70;;;;;;4988136;28;20045;-82
2021/10/07 04:23:14;;;;;;;4.15;1.88;;;9.30;93.70;;;;;;4981777;28;20030;-82
2021/10/07 04:25:40;;;;;;;1.73;1.50;;;9.30;93.90;;;;;;4993731;28;20085;-81
2021/10/07 04:28:06;;;;;;;2.17;1.70;;;9.20;94.30;;;;;;4993176;28;20030;-81
2021/10/07 04:30:36;;;;;;;1.90;1.80;;;9.20;94.20;;;;;;4994048;28;20043;-81
2021/10/07 04:33:03;;;;;;;2.63;1.88;;;9.20;94.00;;;;;;4994736;28;20030;-81
2021/10/07 04:35:28;;;;;;;2.13;1.80;;;9.20;94.00;;;;;;4998282;28;20057;-81
2021/10/07 04:37:54;;;;;;;2.65;1.85;;;9.20;94.10;;;;;;4994483;28;20033;-81
2021/10/07 04:40:20;;;;;;;1.70;1.60;;;9.20;94.30;;;;;;4987394;28;20026;-82
2021/10/07 04:42:46;;;;;;;2.40;2.20;;;9.10;94.40;;;;;;4995619;28;20026;-82
2021/10/07 04:45:11;;;;;;;2.38;1.60;;;9.00;94.70;;;;;;4989091;28;20019;-81
2021/10/07 04:47:37;;;;;;;2.45;1.80;;;9.00;94.80;;;;;;4996835;28;20045;-81
2021/10/07 04:50:04;;;;;;;2.30;1.73;;;9.00;95.00;;;;;;4994666;28;20031;-81
2021/10/07 04:52:30;;;;;;;2.80;2.00;;;9.00;94.70;;;;;;4994229;28;20026;-82
2021/10/07 04:54:55;;;;;;;3.40;1.63;;;9.00;94.70;;;;;;4995912;28;20046;-81
2021/10/07 04:57:21;;;;;;;2.97;1.88;;;9.00;94.50;;;;;;4989832;28;20018;-80
2021/10/07 04:59:46;;;;;;;2.58;1.48;;;9.00;94.50;;;;;;4996317;28;20565;-81
2021/10/07 05:02:12;;;;;;;1.85;1.55;;;9.00;94.40;;;;;;4994203;28;20501;-81
2021/10/07 05:04:38;;;;;;;2.00;1.45;;;9.10;94.40;;;;;;4994884;28;20026;-81
2021/10/07 05:07:04;;;;;;;2.15;1.48;;;9.00;94.10;;;;;;4989275;28;20027;-81
2021/10/07 05:09:30;;;;;;;1.50;1.40;;;9.10;94.00;;;;;;4989889;28;20027;-81
2021/10/07 05:11:55;;;;;;;1.80;1.70;;;9.10;94.00;;;;;;4994030;28;20054;-81
2021/10/07 05:14:21;;;;;;;2.47;1.90;;;9.00;94.00;;;;;;4991161;28;20405;-81
2021/10/07 05:16:47;;;;;;;1.52;1.40;;;9.00;94.10;;;;;;4982566;28;20034;-81
2021/10/07 05:19:12;;;;;;;1.60;1.50;;;9.00;94.00;;;;;;4995748;28;20034;-81
2021/10/07 05:21:38;;;;;;;1.70;1.50;;;9.00;93.90;;;;;;4994152;28;20037;-81
2021/10/07 05:24:04;;;;;;;1.58;1.48;;;9.00;93.80;;;;;;4994431;28;20512;-81
2021/10/07 05:26:30;;;;;;;3.72;1.83;;;9.00;93.70;;;;;;4995839;28;20105;-82
2021/10/07 05:28:55;;;;;;;1.58;1.48;;;9.00;93.70;;;;;;4995468;28;20458;-81
2021/10/07 05:31:21;;;;;;;2.83;1.60;;;9.00;93.60;;;;;;4992707;28;20409;-81
2021/10/07 05:33:47;;;;;;;1.70;1.60;;;8.90;93.50;;;;;;4992492;28;20073;-81
2021/10/07 05:36:13;;;;;;;1.90;1.48;;;9.00;93.70;;;;;;4994164;28;20077;-81
2021/10/07 05:38:39;;;;;;;2.35;1.75;;;9.00;93.90;;;;;;4995031;28;20433;-82
2021/10/07 05:41:06;;;;;;;1.92;1.80;;;8.90;94.00;;;;;;4993043;28;20489;-81
2021/10/07 05:43:32;;;;;;;2.40;2.00;;;8.90;94.30;;;;;;4994968;28;20030;-82
2021/10/07 05:45:57;;;;;;;1.85;1.75;;;8.90;94.50;;;;;;4992925;28;20057;-81
2021/10/07 05:48:24;;;;;;;2.85;1.67;;;9.00;94.70;;;;;;4993343;28;20026;-81
2021/10/07 05:50:49;;;;;;;1.77;1.60;;;9.00;94.40;;;;;;4989846;28;20031;-81
2021/10/07 05:53:15;;;;;;;1.60;1.50;;;9.10;94.40;;;;;;4996745;28;20484;-81
2021/10/07 05:55:40;;;;;;;2.90;1.80;;;9.10;94.30;;;;;;4988789;28;20711;-81
2021/10/07 05:58:06;;;;;;;1.70;1.60;;;9.10;94.50;;;;;;4994393;28;20553;-81
2021/10/07 06:00:32;;;;;;;2.72;1.73;;;9.10;94.30;;;;;;4994964;28;20481;-81
2021/10/07 06:02:57;;;;;;;1.85;1.45;;;9.20;94.40;;;;;;4993325;28;20029;-81
2021/10/07 06:05:23;;;;;;;2.05;1.80;;;9.20;94.40;;;;;;4992585;28;20026;-81
2021/10/07 06:07:49;;;;;;;11.13;1.98;;;9.10;94.40;;;;;;4990521;28;20029;-81
2021/10/07 06:10:14;;;;;;;2.97;1.85;;;9.20;94.30;;;;;;4993352;28;20044;-81
2021/10/07 06:12:44;;;;;;;1.73;1.60;;;9.20;94.40;;;;;;4994407;28;20034;-81
2021/10/07 06:15:11;;;;;;;3.53;1.67;;;9.20;94.40;;;;;;4994137;28;20121;-81
2021/10/07 06:17:37;;;;;;;2.08;1.58;;;9.20;94.30;;;;;;4990594;28;20779;-81
2021/10/07 06:20:16;;;;;;;2.40;1.70;;;9.20;94.60;;;;;;4983138;28;20026;-81
2021/10/07 06:22:41;;;;;;;2.13;1.98;;;9.30;94.40;;;;;;4994377;28;20050;-81
2021/10/07 06:25:07;;;;;;;5.47;1.95;;;9.20;94.50;;;;;;4992814;28;20496;-81
2021/10/07 06:27:33;;;;;;;1.55;1.40;;;9.30;94.30;;;;;;4994647;28;20450;-82
2021/10/07 06:29:59;;;;;;;3.05;1.83;;;9.30;94.30;;;;;;4996519;28;20018;-81
2021/10/07 06:32:24;;;;;;;5.18;1.83;;;9.30;94.50;;;;;;4995560;28;20097;-81
2021/10/07 06:34:50;;;;;;;1.67;1.58;;;9.30;94.30;;;;;;5006514;28;20074;-81
2021/10/07 06:37:15;;;;;;;2.05;1.70;;;9.40;94.10;;;;;;4994041;28;20022;-81
2021/10/07 06:39:41;;;;;;;2.08;1.88;;;9.30;94.70;;;;;;4992929;28;20027;-81
2021/10/07 06:42:07;;;;;;;4.28;1.83;;;9.30;94.70;;;;;;4994205;28;20038;-82
2021/10/07 06:44:33;;;;;;;3.47;1.92;;;9.30;95.00;;;;;;4992384;28;20504;-81
2021/10/07 06:46:58;;;;;;;3.22;1.80;;;9.40;94.80;;;;;;4988516;28;20026;-81
2021/10/07 06:49:24;;;;;;;2.42;2.00;;;9.50;94.90;;;;;;4992618;28;20034;-81
2021/10/07 06:51:50;;;;;;;2.65;2.25;;;9.50;95.10;;;;;;4994584;28;20078;-81
2021/10/07 06:54:15;;;;;;;3.22;2.20;;;9.50;94.90;;;;;;4993677;28;20029;-81
2021/10/07 06:56:41;;;;;;;3.72;2.20;;;9.50;94.70;;;;;;4992083;28;20031;-81
2021/10/07 06:59:08;;;;;;;2.55;2.35;;;9.60;94.50;;;;;;4997168;28;20508;-81
2021/10/07 07:01:33;;;;;;;3.28;2.55;;;9.60;94.90;;;;;;4993043;28;20033;-81
2021/10/07 07:03:59;;;;;;;3.47;2.30;;;9.60;94.90;;;;;;4993419;28;20097;-82
2021/10/07 07:06:26;;;;;;;3.40;2.58;;;9.70;94.70;;;;;;4993358;28;20808;-82
2021/10/07 07:08:52;;;;;;;4.22;2.58;;;9.70;94.70;;;;;;4992039;28;20504;-81
2021/10/07 07:11:18;;;;;;;4.45;2.78;;;9.70;94.60;;;;;;4994715;28;20034;-81
2021/10/07 07:13:44;;;;;;;6.22;3.10;;;9.80;94.60;;;;;;4992608;28;20536;-81
2021/10/07 07:16:10;;;;;;;3.75;2.70;;;9.80;94.30;;;;;;4993201;28;20117;-81
2021/10/07 07:18:37;;;;;;;5.00;2.90;;;9.80;94.30;;;;;;4993264;28;20066;-82
2021/10/07 07:21:02;;;;;;;4.15;2.88;;;9.80;94.40;;;;;;4994734;28;20497;-82
2021/10/07 07:23:29;;;;;;;3.38;2.85;;;9.80;94.10;;;;;;5001444;28;20049;-81
2021/10/07 07:25:55;;;;;;;5.63;2.90;;;9.80;94.80;;;;;;4996419;28;20030;-81
2021/10/07 07:28:21;;;;;;;3.75;2.60;;;9.90;94.60;;;;;;4992642;28;20034;-82
2021/10/07 07:30:49;;;;;;;4.53;2.83;;;9.90;94.20;;;;;;4992480;28;20038;-81
2021/10/07 07:33:17;;;;;;;4.07;3.10;;;9.90;94.40;;;;;;4993486;28;20034;-81
2021/10/07 07:35:43;;;;;;;3.05;2.47;;;9.90;94.20;;;;;;4991391;28;20039;-82
2021/10/07 07:38:08;;;;;;;3.88;2.83;;;10.00;94.50;;;;;;4991909;28;20093;-81
2021/10/07 07:40:34;;;;;;;5.28;3.22;;;10.00;94.20;;;;;;4994472;28;20054;-81
2021/10/07 07:43:00;;;;;;;5.15;3.17;;;10.00;94.30;;;;;;4992842;28;20496;-81
2021/10/07 07:45:26;;;;;;;5.85;3.15;;;10.00;94.20;;;;;;4992782;28;20401;-81
2021/10/07 07:47:52;;;;;;;5.13;3.05;;;10.10;94.60;;;;;;4994083;28;20029;-81
2021/10/07 07:50:19;;;;;;;3.83;2.65;;;10.20;94.00;;;;;;4992607;28;20072;-81
2021/10/07 07:52:46;;;;;;;3.50;2.67;;;10.20;93.50;;;;;;4993654;28;20061;-81
2021/10/07 07:55:12;;;;;;;5.55;3.13;;;10.30;93.70;;;;;;4992615;28;20481;-81
2021/10/07 07:57:38;;;;;;;5.35;3.13;;;10.30;94.10;;;;;;4990589;28;20037;-81
2021/10/07 08:00:05;;;;;;;5.40;3.03;;;10.40;93.70;;;;;;4992680;28;20034;-81
2021/10/07 08:02:31;;;;;;;3.75;3.35;;;10.40;94.00;;;;;;4992194;28;20039;-81
2021/10/07 08:04:57;;;;;;;3.22;2.72;;;10.50;93.60;;;;;;4991985;28;20081;-81
2021/10/07 08:07:22;;;;;;;4.93;3.10;;;10.50;93.40;;;;;;5003484;28;20137;-81
2021/10/07 08:09:48;;;;;;;4.10;2.70;;;10.60;93.50;;;;;;5001085;28;20034;-81
2021/10/07 08:12:15;;;;;;;5.28;3.22;;;10.60;93.10;;;;;;4998045;28;20046;-81
2021/10/07 08:14:45;;;;;;;4.95;2.95;;;10.70;93.20;;;;;;4988557;28;20038;-81
2021/10/07 08:17:12;;;;;;;5.22;2.80;;;10.70;93.00;;;;;;4997212;28;20129;-81
2021/10/07 08:19:39;;;;;;;6.97;3.00;;;10.70;92.90;;;;;;5000562;28;20030;-81
2021/10/07 08:22:05;;;;;;;5.93;3.22;;;10.70;92.40;;;;;;4986008;28;20031;-81
2021/10/07 08:24:32;;;;;;;5.50;3.30;;;10.70;92.50;;;;;;4995838;28;20034;-81
2021/10/07 08:27:02;;;;;;;5.45;3.22;;;10.70;93.10;;;;;;4996323;28;20030;-81
2021/10/07 08:29:28;;;;;;;5.45;3.15;;;10.80;93.90;;;;;;4995830;28;20054;-82
2021/10/07 08:31:54;;;;;;;6.75;4.35;;;10.80;92.30;;;;;;4995992;28;20497;-81
2021/10/07 08:34:19;;;;;;;5.82;4.35;;;10.90;92.60;;;;;;4997585;28;20806;-81
2021/10/07 08:36:46;;;;;;;9.10;5.05;;;11.00;92.80;;;;;;4995771;28;20042;-81
2021/10/07 08:39:16;;;;;;;6.47;4.57;;;11.10;93.40;;;;;;4996930;28;20026;-81
2021/10/07 08:41:48;;;;;;;7.72;4.90;;;11.10;91.60;;;;;;4997235;28;20030;-81
2021/10/07 08:44:15;;;;;;;7.82;6.65;;;11.10;92.80;;;;;;4982969;28;20042;-81
2021/10/07 08:46:44;;;;;;;5.25;4.30;;;11.00;91.30;;;;;;4997149;28;20069;-81
2021/10/07 08:49:14;;;;;;;4.22;3.83;;;11.00;92.30;;;;;;4996347;28;20108;-81
2021/10/07 08:51:41;;;;;;;6.43;4.20;;;11.00;91.30;;;;;;4995161;28;20030;-81
2021/10/07 08:54:06;;;;;;;5.65;4.30;;;11.00;92.30;;;;;;4995723;28;20034;-81
2021/10/07 08:56:32;;;;;;;6.25;4.15;;;11.00;91.20;;;;;;4994372;28;20057;-81
2021/10/07 08:59:00;;;;;;;5.32;4.22;;;11.00;91.20;;;;;;4997323;28;20023;-81
2021/10/07 09:01:46;;;;;;;4.00;3.60;;;11.10;92.20;;;;;;4989773;28;20037;-81
2021/10/07 09:04:30;;;;;;;5.93;3.58;;;11.00;91.30;;;;;;4995373;28;20397;-81
2021/10/07 09:06:58;;;;;;;4.13;3.60;;;11.10;90.90;;;;;;4989212;28;20034;-81
2021/10/07 09:09:25;;;;;;;7.22;4.00;;;11.20;91.60;;;;;;4992279;28;20037;-81
2021/10/07 09:11:57;;;;;;;5.13;3.45;;;11.20;91.10;;;;;;4988674;28;20042;-81
2021/10/07 09:14:44;;;;;;;6.38;3.78;;;11.20;90.40;;;;;;4994334;28;20026;-81
2021/10/07 09:17:12;;;;;;;7.30;3.40;;;11.20;91.10;;;;;;4982766;28;20027;-81
2021/10/07 09:19:43;;;;;;;;;;;11.20;90.80;;;;;;4992341;28;20097;-81
2021/10/07 09:22:23;;;;;;;3.72;2.83;;;11.20;90.10;;;;;;4988510;28;19914;-81
2021/10/07 09:24:58;;;;;;;6.03;3.28;;;11.10;90.20;;;;;;4994518;28;20030;-81
2021/10/07 09:27:29;;;;;;;6.57;3.35;;;11.20;91.40;;;;;;5000907;28;20661;-81
2021/10/07 09:30:16;;;;;;;4.97;3.35;;;11.20;90.50;;;;;;4994294;28;20489;-80
2021/10/07 09:32:46;;;;;;;6.68;4.07;;;11.10;90.00;;;;;;4995308;28;20101;-81
2021/10/07 09:35:15;;;;;;;4.22;3.10;;;11.20;90.50;;;;;;5000900;28;20026;-81
2021/10/07 09:37:46;;;;;;;5.07;2.60;;;11.20;90.50;;;;;;4996979;28;20027;-80
2021/10/07 09:40:19;;;;;;;3.10;2.58;;;11.20;90.00;;;;;;4994937;28;20657;-81
2021/10/07 09:42:51;;;;;;;3.33;2.95;;;11.20;90.00;;;;;;4994736;28;20056;-81
2021/10/07 09:45:22;;;;;;;4.68;3.03;;;11.40;90.90;;;;;;4994638;28;20029;-81
2021/10/07 09:47:55;;;;;;;4.15;3.40;;;11.50;91.10;;;;;;4995406;28;20022;-81
2021/10/07 09:50:23;;;;;;;3.25;2.80;;;11.50;90.30;;;;;;4992491;28;20182;-81
2021/10/07 09:52:52;;;;;;;4.50;3.05;;;11.50;89.20;;;;;;4997149;28;20034;-81
2021/10/07 09:55:23;;;;;;;3.67;2.47;;;11.50;88.00;;;;;;4997747;28;20088;-81
2021/10/07 09:57:50;;;;;;;3.35;2.90;;;11.40;89.20;;;;;;4996478;28;20141;-81
2021/10/07 10:00:16;;;;;;;2.90;2.28;;;11.50;90.20;;;;;;4994698;28;20405;-81
2021/10/07 10:02:42;;;;;;;4.70;2.92;;;11.50;87.70;;;;;;4993305;28;20030;-81
2021/10/07 10:05:13;;;;;;;3.50;2.85;;;11.50;87.30;;;;;;4996469;28;20034;-81
2021/10/07 10:07:40;;;;;;;5.43;3.10;;;11.50;87.50;;;;;;4994797;28;20393;-80
2021/10/07 10:10:07;;;;;;;5.25;3.13;;;11.50;87.30;;;;;;4996029;28;20110;-81
2021/10/07 10:12:33;;;;;;;5.28;3.10;;;11.60;88.90;;;;;;4995137;28;20251;-81
2021/10/07 10:15:01;;;;;;;4.53;3.35;;;11.60;89.30;;;;;;4995606;28;20386;-81
2021/10/07 10:17:27;;;;;;;5.13;3.22;;;11.60;89.00;;;;;;4988897;28;20549;-81
2021/10/07 10:19:54;;;;;;;2.90;2.60;;;11.60;89.40;;;;;;4995251;28;20054;-81
2021/10/07 10:22:25;;;;;;;2.90;2.60;;;11.60;88.60;;;;;;4995085;28;20034;-80
2021/10/07 10:24:52;;;;;;;3.38;2.67;;;11.70;88.70;;;;;;4994859;28;20034;-82
2021/10/07 10:27:17;;;;;;;3.50;2.38;;;11.70;90.00;;;;;;4994297;28;20026;-81
2021/10/07 10:29:43;;;;;;;2.80;2.58;;;11.80;88.40;;;;;;4996509;28;20104;-81
2021/10/07 10:32:12;;;;;;;3.63;2.97;;;11.80;87.90;;;;;;4992911;28;20677;-81
2021/10/07 10:34:44;;;;;;;3.20;2.53;;;11.80;89.00;;;;;;4982983;28;20481;-81
2021/10/07 10:37:12;;;;;;;2.90;2.50;;;11.80;89.40;;;;;;4991074;28;20520;-81
2021/10/07 10:39:40;;;;;;;3.33;2.50;;;11.90;86.50;;;;;;4991533;28;20034;-81
2021/10/07 10:42:22;;;;;;;3.00;2.47;;;11.90;85.30;;;;;;4994430;28;20027;-81
2021/10/07 10:45:03;;;;;;;3.58;2.50;;;11.90;86.20;;;;;;4992566;28;20520;-82
2021/10/07 10:47:42;;;;;;;2.55;2.13;;;11.90;84.60;;;;;;4994793;28;20046;-81
2021/10/07 10:50:12;;;;;;;2.47;2.28;;;12.00;86.20;;;;;;4985492;28;20121;-81
2021/10/07 10:52:58;;;;;;;4.15;2.67;;;11.90;87.10;;;;;;4994032;28;20453;-82
2021/10/07 10:55:25;;;;;;;3.25;2.38;;;11.90;85.80;;;;;;4993044;28;20125;-81
2021/10/07 10:58:11;;;;;;;2.20;2.03;;;11.90;85.30;;;;;;4993015;28;20031;-81
2021/10/07 11:00:43;;;;;;;2.95;2.20;;;11.90;85.00;;;;;;4983353;28;20038;-81
2021/10/07 11:03:08;;;;;;;2.58;2.33;;;11.90;85.00;;;;;;4990109;28;20025;-81
2021/10/07 11:05:42;;;;;;;6.95;2.45;;;12.00;85.60;;;;;;4992693;28;20038;-81
2021/10/07 11:08:22;;;;;;;3.17;2.00;;;12.10;85.20;;;;;;4989379;28;20038;-81
2021/10/07 11:10:50;;;;;;;2.05;1.95;;;12.00;84.90;;;;;;4992538;28;20071;-81
2021/10/07 11:13:26;;;;;;;3.97;2.77;;;12.10;87.00;;;;;;4996638;28;20034;-81
2021/10/07 11:16:04;;;;;;;1.83;1.73;;;12.10;85.30;;;;;;4993389;28;20031;-81
2021/10/07 11:18:37;;;;;;;3.88;2.50;;;12.10;85.60;;;;;;4993843;28;20366;-81
2021/10/07 11:21:11;;;;;;;2.42;2.22;;;12.10;85.60;;;;;;4991246;28;20474;-81
2021/10/07 11:23:36;;;;;;;3.33;2.50;;;12.10;86.80;;;;;;4993387;28;20105;-81
2021/10/07 11:26:03;;;;;;;4.32;2.50;;;12.10;85.20;;;;;;4995578;28;20037;-81
2021/10/07 11:28:38;;;;;;;2.88;2.53;;;12.10;84.20;;;;;;4992957;28;20060;-81
2021/10/07 11:31:09;;;;;;;3.08;1.98;;;12.10;85.60;;;;;;4992877;28;20046;-81
2021/10/07 11:33:37;;;;;;;4.38;2.30;;;12.10;81.90;;;;;;4993034;28;20034;-81
2021/10/07 11:36:08;;;;;;;2.28;1.85;;;12.20;84.80;;;;;;4992658;28;20034;-85
2021/10/07 11:38:41;;;;;;;2.67;2.00;;;12.30;83.50;;;;;;4993111;28;20109;-81
2021/10/07 11:41:09;;;;;;;2.60;1.77;;;12.30;81.90;;;;;;4992390;28;20030;-81
2021/10/07 11:43:37;;;;;;;4.25;2.13;;;12.30;82.00;;;;;;4992822;28;20320;-81
2021/10/07 11:46:04;;;;;;;;;;;12.30;83.60;;;;;;4984675;28;20030;-81
2021/10/07 11:48:30;;;;;;;2.30;1.80;;;12.30;78.60;;;;;;4991792;28;20265;-81
2021/10/07 11:50:59;;;;;;;2.75;2.03;;;12.30;80.60;;;;;;4991491;28;20045;-81
2021/10/07 11:53:31;;;;;;;2.08;1.80;;;12.20;81.20;;;;;;4989054;28;20054;-81
2021/10/07 11:55:59;;;;;;;1.83;1.73;;;12.20;80.00;;;;;;5000601;28;20033;-81
2021/10/07 11:58:29;;;;;;;4.13;2.42;;;12.20;77.60;;;;;;4990723;28;20847;-81
2021/10/07 12:00:56;;;;;;;3.17;2.72;;;12.10;81.80;;;;;;4992309;28;20030;-81
2021/10/07 12:03:27;;;;;;;4.07;3.10;;;12.20;84.20;;;;;;4991663;28;20362;-81
2021/10/07 12:05:54;;;;;;;3.40;3.10;;;12.20;81.30;;;;;;4991699;28;20022;-80
2021/10/07 12:08:22;;;;;;;3.97;3.10;;;12.20;81.50;;;;;;4996228;28;20031;-82
2021/10/07 12:10:50;;;;;;;5.75;3.53;;;12.20;81.80;;;;;;4997508;28;20102;-80
2021/10/07 12:13:19;;;;;;;4.82;3.00;;;12.30;81.00;;;;;;4993893;28;20056;-80
2021/10/07 12:15:55;;;;;;;5.40;3.05;;;12.30;81.50;;;;;;4999331;28;20045;-81
2021/10/07 12:18:24;;;;;;;3.63;2.80;;;12.20;81.10;;;;;;4998575;28;20026;-81
2021/10/07 12:21:11;;;;;;;3.35;2.60;;;12.20;80.40;;;;;;4998284;28;20094;-82
2021/10/07 12:24:03;;;;;;;4.32;2.60;;;12.20;81.60;;;;;;4984763;28;20117;-80
2021/10/07 12:26:48;;;;;;;2.60;2.40;;;12.20;79.60;;;;;;4984380;28;20113;-81
2021/10/07 12:29:22;;;;;;;2.53;2.30;;;12.30;81.10;;;;;;4993023;28;20527;-82
2021/10/07 12:32:03;;;;;;;2.88;2.58;;;12.40;79.30;;;;;;4986268;28;20035;-80
2021/10/07 12:34:40;;;;;;;3.28;2.97;;;12.50;80.30;;;;;;4993225;28;20061;-83
2021/10/07 12:37:09;;;;;;;3.17;2.72;;;12.60;79.60;;;;;;4991540;28;20058;-82
2021/10/07 12:39:40;;;;;;;4.10;2.97;;;12.60;80.70;;;;;;4991440;28;20105;-82
2021/10/07 12:42:20;;;;;;;3.83;2.35;;;12.60;78.30;;;;;;4991524;28;20077;-83
2021/10/07 12:44:50;;;;;;;2.42;2.22;;;12.70;75.30;;;;;;4993679;28;20057;-82
2021/10/07 12:47:28;;;;;;;1.50;1.40;;;12.70;76.10;;;;;;4992726;28;20042;-82
2021/10/07 12:49:55;;;;;;;4.50;1.80;;;12.80;75.90;;;;;;4992925;28;20109;-82
2021/10/07 12:52:31;;;;;;;2.30;2.10;;;12.90;73.70;;;;;;4995885;28;20038;-82
2021/10/07 12:55:01;;;;;;;2.35;2.10;;;12.80;73.30;;;;;;4996091;28;20357;-84
2021/10/07 12:57:46;;;;;;;3.70;3.40;;;12.80;76.20;;;;;;4988737;28;20496;-81
2021/10/07 13:00:28;;;;;;;2.72;2.50;;;12.70;75.70;;;;;;4996477;28;20478;-81